Time;durP1;ratioP1;P1;durP2;ratioP2;P2;SDS_P1;SDS_P2;PMS_P1;PMS_P2;Temp;Humidity;BMP_temperature;BMP_pressure;BME280_temperature;BME280_humidity;BME280_pressure;Samples;Min_cycle;Max_cycle;Signal;HPM_P1;HPM_P2
2022/06/05 00:01:50;;;;;;;33.03;17.58;;;;;;;14.88;65.80;99888.34;5013701;28;20056;-83
2022/06/05 00:04:49;;;;;;;28.10;17.70;;;;;;;15.08;66.01;99911.75;5012403;28;20405;-83
2022/06/05 00:07:42;;;;;;;30.35;18.00;;;;;;;15.06;65.72;99916.16;5014780;28;20053;-83
2022/06/05 00:10:14;;;;;;;32.10;17.85;;;;;;;14.89;66.20;99887.47;5014011;28;20462;-84
2022/06/05 00:13:06;;;;;;;30.38;17.35;;;;;;;15.07;65.68;99911.75;5022671;28;20069;-83
2022/06/05 00:15:36;;;;;;;37.38;17.80;;;;;;;15.06;65.62;99928.44;5023829;28;20104;-82
2022/06/05 00:18:04;;;;;;;30.85;17.80;;;;;;;15.00;65.57;99894.34;5013785;28;20060;-81
2022/06/05 00:20:31;;;;;;;30.83;18.23;;;;;;;15.07;65.68;99902.09;5013666;28;20069;-82
2022/06/05 00:23:00;;;;;;;33.47;17.48;;;;;;;15.03;65.57;99889.03;5014050;28;20591;-83
2022/06/05 00:25:54;;;;;;;29.35;16.73;;;;;;;14.89;66.12;99879.56;5014009;28;20057;-80
2022/06/05 00:28:36;;;;;;;27.05;15.45;;;;;;;15.02;65.94;99903.06;5004064;28;20148;-82
2022/06/05 00:31:22;;;;;;;31.10;15.68;;;;;;;15.01;65.56;99889.03;4996651;28;20049;-83
2022/06/05 00:33:52;;;;;;;31.50;16.52;;;;;;;14.93;65.83;99896.19;5014900;28;20068;-85
2022/06/05 00:36:42;;;;;;;30.40;16.60;;;;;;;14.95;65.52;99881.25;5013703;28;20156;-84
2022/06/05 00:39:20;;;;;;;30.98;16.02;;;;;;;14.97;65.83;99889.09;5013540;28;20152;-83
2022/06/05 00:41:58;;;;;;;26.75;15.02;;;;;;;14.85;65.63;99872.59;5014032;28;20046;-84
2022/06/05 00:44:31;;;;;;;27.08;15.30;;;;;;;14.95;65.83;99881.25;5012823;28;20112;-84
2022/06/05 00:47:01;;;;;;;24.67;15.27;;;;;;;14.93;65.79;99881.25;5012880;28;20050;-83
2022/06/05 00:49:39;;;;;;;28.27;14.82;;;;;;;14.92;66.02;99882.13;5015704;28;20057;-85
2022/06/05 00:52:10;;;;;;;28.42;13.60;;;;;;;14.83;65.79;99858.63;5021605;28;20408;-81
2022/06/05 00:54:40;;;;;;;28.17;15.25;;;;;;;14.90;65.84;99862.88;5022901;28;20054;-85
2022/06/05 00:57:12;;;;;;;26.33;14.52;;;;;;;14.90;65.75;99865.50;5019889;28;20417;-83
2022/06/05 00:59:44;;;;;;;29.27;13.82;;;;;;;14.85;65.74;99859.47;5014907;28;20061;-84
2022/06/05 01:02:13;;;;;;;30.42;14.52;;;;;;;14.79;65.91;99854.28;5014751;28;20057;-84
2022/06/05 01:04:46;;;;;;;27.15;14.88;;;;;;;14.68;66.12;99824.66;5024779;28;20539;-83
2022/06/05 01:07:17;;;;;;;28.02;13.98;;;;;;;14.87;65.88;99865.56;5013183;28;20053;-84
2022/06/05 01:09:47;;;;;;;28.25;14.20;;;;;;;14.72;66.27;99834.25;5012910;28;20096;-84
2022/06/05 01:12:39;;;;;;;25.35;13.95;;;;;;;14.86;66.13;99855.97;5012536;28;20522;-84
2022/06/05 01:15:11;;;;;;;24.20;13.80;;;;;;;14.89;66.23;99855.03;5001062;28;20469;-84
2022/06/05 01:18:09;;;;;;;25.75;14.63;;;;;;;14.87;66.24;99854.19;5017314;28;20136;-86
2022/06/05 01:20:59;;;;;;;27.13;14.18;;;;;;;14.86;66.33;99847.19;5016367;28;20062;-86
2022/06/05 01:24:06;;;;;;;22.50;13.90;;;;;;;14.87;66.26;99851.56;5016567;28;20057;-86
2022/06/05 01:26:45;;;;;;;24.13;14.52;;;;;;;14.70;66.09;99814.97;5016228;28;20093;-85
2022/06/05 01:29:23;;;;;;;27.15;14.57;;;;;;;14.87;66.10;99847.16;5015113;28;20515;-84
2022/06/05 01:32:06;;;;;;;25.33;14.73;;;;;;;14.79;66.16;99811.34;5015781;28;20050;-84
2022/06/05 01:34:47;;;;;;;26.00;14.25;;;;;;;14.95;65.58;99831.28;5016635;28;20058;-84
2022/06/05 01:37:55;;;;;;;24.50;14.23;;;;;;;15.12;65.74;99846.78;5015383;28;20492;-83
2022/06/05 01:40:37;;;;;;;26.83;14.85;;;;;;;15.14;65.71;99822.22;5015587;28;20097;-84
2022/06/05 01:43:10;;;;;;;28.98;14.05;;;;;;;15.24;65.24;99841.34;5015591;28;20089;-83
2022/06/05 01:45:38;;;;;;;24.38;13.88;;;;;;;15.42;65.17;99844.56;5016679;28;20103;-83
2022/06/05 01:48:10;;;;;;;20.25;13.63;;;;;;;15.45;64.81;99837.50;5026829;28;20058;-81
2022/06/05 01:50:46;;;;;;;23.92;14.13;;;;;;;15.47;64.68;99821.69;5035630;28;20064;-83
2022/06/05 01:53:27;;;;;;;24.77;14.00;;;;;;;15.64;64.17;99835.41;5031778;28;20081;-82
2022/06/05 01:56:05;;;;;;;24.67;15.35;;;;;;;15.86;63.73;99841.19;5022916;28;20145;-83
2022/06/05 01:58:48;;;;;;;26.52;14.23;;;;;;;15.99;63.20;99831.28;5016714;28;20050;-82
2022/06/05 02:01:22;;;;;;;26.42;14.25;;;;;;;16.24;62.44;99834.31;5016192;28;20100;-84
2022/06/05 02:03:58;;;;;;;24.73;14.63;;;;;;;16.42;62.03;99837.47;5015629;28;20046;-84
2022/06/05 02:06:39;;;;;;;24.08;15.05;;;;;;;16.33;62.08;99839.38;5014110;28;20054;-84
2022/06/05 02:09:18;;;;;;;22.95;15.00;;;;;;;16.20;62.09;99831.75;5013924;28;20465;-84
2022/06/05 02:11:47;;;;;;;21.10;13.70;;;;;;;16.17;62.72;99841.47;5015271;28;20418;-84
2022/06/05 02:14:17;;;;;;;22.73;13.60;;;;;;;16.13;62.79;99831.00;5013847;28;20057;-84
2022/06/05 02:16:46;;;;;;;;;;;;;;;16.04;62.73;99832.06;5014418;28;20050;-84
2022/06/05 02:19:34;;;;;;;23.77;13.90;;;;;;;16.13;62.55;99837.16;5001114;28;19975;-82
2022/06/05 02:22:14;;;;;;;23.38;14.25;;;;;;;16.13;62.40;99808.19;5014999;28;20062;-83
2022/06/05 02:24:43;;;;;;;22.63;13.70;;;;;;;16.26;62.17;99824.59;5013842;28;20052;-82
2022/06/05 02:27:12;;;;;;;21.75;14.15;;;;;;;16.23;61.78;99784.25;5013998;28;20053;-83
2022/06/05 02:29:40;;;;;;;17.90;12.68;;;;;;;16.40;61.57;99816.41;5017849;28;20566;-83
2022/06/05 02:32:19;;;;;;;21.77;14.05;;;;;;;16.68;61.04;99824.56;5015100;28;20060;-82
2022/06/05 02:35:06;;;;;;;23.55;14.30;;;;;;;16.87;60.55;99832.13;5015156;28;20069;-85
2022/06/05 02:37:56;;;;;;;26.48;14.48;;;;;;;17.09;59.94;99819.28;5015178;28;20072;-83
2022/06/05 02:40:43;;;;;;;22.00;14.10;;;;;;;17.47;58.80;99820.13;5015082;28;20081;-83
2022/06/05 02:43:30;;;;;;;21.73;13.65;;;;;;;18.09;56.95;99809.66;5002471;28;20058;-83
2022/06/05 02:46:22;;;;;;;21.75;13.23;;;;;;;19.05;54.63;99801.50;5024722;28;20152;-85
2022/06/05 02:49:01;;;;;;;21.05;13.63;;;;;;;20.18;51.43;99799.41;5013388;28;20422;-84
2022/06/05 02:51:37;;;;;;;20.67;13.02;;;;;;;21.43;48.39;99806.00;4997134;28;20093;-83
2022/06/05 02:54:06;;;;;;;22.38;13.95;;;;;;;21.68;46.83;99790.75;5012959;28;20050;-85
2022/06/05 02:56:35;;;;;;;20.85;13.82;;;;;;;22.10;45.90;99780.91;5013980;28;20419;-84
2022/06/05 02:59:03;;;;;;;19.83;13.55;;;;;;;22.38;45.13;99793.84;4997077;28;20062;-83
2022/06/05 03:04:19;;;;;;;22.65;14.23;;;;;;;21.91;46.43;99772.91;5014443;28;20062;-84
2022/06/05 03:06:48;;;;;;;22.27;14.70;;;;;;;23.38;43.34;99789.06;5017459;28;20057;-85
2022/06/05 03:09:16;;;;;;;23.63;13.85;;;;;;;24.59;40.67;99787.13;5012957;28;20053;-85
2022/06/05 03:11:44;;;;;;;25.35;14.55;;;;;;;25.98;37.92;99777.25;5012978;28;20124;-83
2022/06/05 03:14:13;;;;;;;23.85;14.20;;;;;;;27.42;35.09;99764.41;5014856;28;20128;-84
2022/06/05 03:16:41;;;;;;;25.70;14.68;;;;;;;28.99;32.46;99772.94;5030548;28;20080;-83
2022/06/05 03:19:10;;;;;;;26.77;14.75;;;;;;;29.87;31.06;99765.44;4999748;28;20058;-84
2022/06/05 03:21:38;;;;;;;23.45;13.93;;;;;;;31.24;29.02;99776.81;5012198;28;20108;-85
2022/06/05 03:24:08;;;;;;;22.58;13.73;;;;;;;33.17;26.03;99768.88;5012854;28;20096;-85
2022/06/05 03:26:37;;;;;;;28.52;14.35;;;;;;;34.61;24.55;99751.53;5013762;28;20454;-83
2022/06/05 03:29:07;;;;;;;25.98;13.82;;;;;;;35.61;22.80;99764.06;5013824;28;20058;-83
2022/06/05 03:31:35;;;;;;;22.50;13.93;;;;;;;36.50;21.70;99759.31;4997158;28;20057;-83
2022/06/05 03:34:05;;;;;;;18.20;13.57;;;;;;;37.44;20.69;99760.88;5013670;28;20115;-86
2022/06/05 03:36:34;;;;;;;21.73;13.52;;;;;;;37.69;19.88;99699.06;5012518;28;20542;-87
2022/06/05 03:39:01;;;;;;;20.13;13.15;;;;;;;39.10;18.74;99751.94;5014266;28;20504;-86
2022/06/05 03:41:30;;;;;;;;;;;;;;;39.99;21.04;99754.06;4997426;28;20053;-86
2022/06/05 03:43:58;;;;;;;18.02;13.50;;;;;;;40.15;17.75;99742.94;5013413;28;19925;-89
2022/06/05 03:46:27;;;;;;;19.48;12.90;;;;;;;40.67;16.57;99730.13;5013590;28;20092;-88
2022/06/05 03:48:55;;;;;;;17.08;13.18;;;;;;;40.89;16.30;99731.88;5014263;28;20050;-88
2022/06/05 03:51:22;;;;;;;16.27;12.27;;;;;;;41.22;16.08;99739.59;5001905;28;20042;-90
2022/06/05 03:53:50;;;;;;;15.40;10.38;;;;;;;40.97;15.38;99719.09;4971463;28;20447;-85
2022/06/05 03:56:22;;;;;;;12.77;9.68;;;;;;;39.67;16.16;99734.25;5004099;28;20091;-87
2022/06/05 03:58:51;;;;;;;14.68;9.70;;;;;;;38.13;17.43;99721.44;5000161;28;20062;-86
2022/06/05 04:01:21;;;;;;;15.75;9.60;;;;;;;37.21;17.99;99717.13;4986513;28;20049;-87
2022/06/05 04:03:49;;;;;;;13.77;9.68;;;;;;;37.10;18.41;99712.88;4991860;28;20088;-86
2022/06/05 04:06:20;;;;;;;14.13;9.35;;;;;;;38.47;17.09;99697.38;4986095;28;20405;-86
2022/06/05 04:08:48;;;;;;;13.73;10.07;;;;;;;39.56;16.12;99732.81;4993767;28;20050;-87
2022/06/05 04:11:17;;;;;;;18.73;10.93;;;;;;;39.72;15.83;99738.09;5002265;28;20084;-85
2022/06/05 04:13:45;;;;;;;18.10;11.57;;;;;;;38.29;17.36;99711.31;4995532;28;20057;-87
2022/06/05 04:16:19;;;;;;;15.52;10.60;;;;;;;35.11;20.03;99734.78;4998178;28;20470;-85
2022/06/05 04:18:48;;;;;;;14.05;10.02;;;;;;;31.47;24.25;99729.00;5013466;28;20058;-87
2022/06/05 04:21:20;;;;;;;16.75;10.77;;;;;;;29.54;26.55;99703.34;5002928;28;20070;-84
2022/06/05 04:23:50;;;;;;;16.15;10.73;;;;;;;28.60;28.38;99698.81;4996681;28;20526;-89
2022/06/05 04:26:23;;;;;;;19.23;10.85;;;;;;;28.22;28.83;99712.34;4994217;28;20563;-90
2022/06/05 04:28:53;;;;;;;15.52;9.82;;;;;;;27.07;30.23;99672.94;5001077;28;20047;-85
2022/06/05 04:31:32;;;;;;;14.10;9.90;;;;;;;26.95;30.80;99683.53;5002998;28;20041;-87
2022/06/05 04:34:01;;;;;;;;;;;;;;;26.32;31.33;99713.56;5001820;28;20093;-88
2022/06/05 04:36:29;;;;;;;12.48;9.75;;;;;;;26.11;31.57;99702.41;4997338;28;19976;-86
2022/06/05 04:38:56;;;;;;;12.57;9.43;;;;;;;25.50;33.09;99707.91;5001804;28;20574;-83
2022/06/05 04:41:27;;;;;;;14.77;8.60;;;;;;;25.19;33.52;99703.53;4998647;28;20468;-85
2022/06/05 04:43:55;;;;;;;13.43;9.48;;;;;;;25.19;33.73;99681.28;4991464;28;20555;-85
2022/06/05 04:46:25;;;;;;;13.32;8.75;;;;;;;25.29;33.99;99710.06;4991705;28;20050;-84
2022/06/05 04:48:53;;;;;;;16.50;10.40;;;;;;;25.32;34.16;99701.03;4996813;28;20046;-84
2022/06/05 04:51:21;;;;;;;13.40;8.98;;;;;;;25.44;33.51;99689.56;4996750;28;20059;-83
2022/06/05 04:53:50;;;;;;;13.05;8.10;;;;;;;25.41;33.77;99692.44;5010787;28;20054;-82
2022/06/05 04:56:20;;;;;;;8.60;7.57;;;;;;;25.32;33.60;99674.28;5002846;28;20054;-81
2022/06/05 04:58:56;;;;;;;15.45;8.55;;;;;;;25.03;34.69;99697.38;4997031;28;20049;-83
2022/06/05 05:01:30;;;;;;;12.98;9.02;;;;;;;24.74;35.64;99681.25;4995637;28;20054;-82
2022/06/05 05:04:04;;;;;;;11.43;8.40;;;;;;;25.14;35.37;99684.22;4996958;28;20112;-83
2022/06/05 05:06:34;;;;;;;14.18;8.85;;;;;;;25.44;35.02;99686.03;4996834;28;20065;-83
2022/06/05 05:09:03;;;;;;;12.18;8.18;;;;;;;25.81;34.43;99681.09;4997011;28;20073;-83
2022/06/05 05:11:31;;;;;;;12.32;8.43;;;;;;;25.55;34.54;99662.16;4997244;28;20141;-82
2022/06/05 05:14:00;;;;;;;12.93;8.52;;;;;;;25.22;35.45;99673.97;4999630;28;20070;-84
2022/06/05 05:16:30;;;;;;;12.45;8.25;;;;;;;25.36;35.54;99694.53;5006287;28;20062;-81
2022/06/05 05:19:09;;;;;;;11.48;7.35;;;;;;;25.18;35.65;99674.22;4996011;28;20047;-83
2022/06/05 05:21:39;;;;;;;9.57;6.30;;;;;;;25.03;35.36;99695.56;5002612;28;20488;-83
2022/06/05 05:24:08;;;;;;;13.35;6.43;;;;;;;24.85;35.57;99689.50;5003244;28;20062;-83
2022/06/05 05:26:37;;;;;;;11.15;7.18;;;;;;;24.50;36.00;99700.41;4997786;28;20052;-83
2022/06/05 05:29:06;;;;;;;12.38;7.72;;;;;;;24.08;37.36;99692.97;5000237;28;20058;-83
2022/06/05 05:31:38;;;;;;;12.85;7.38;;;;;;;23.89;37.89;99691.28;4997923;28;20050;-82
2022/06/05 05:34:09;;;;;;;13.02;6.80;;;;;;;24.06;38.09;99682.34;4984257;28;20085;-81
2022/06/05 05:36:38;;;;;;;10.13;7.05;;;;;;;24.47;37.06;99662.31;4995251;28;20046;-80
2022/06/05 05:42:06;;;;;;;9.35;6.00;;;;;;;24.91;36.02;99691.81;5007332;28;20198;-79
2022/06/05 05:44:38;;;;;;;10.07;6.20;;;;;;;24.58;36.83;99694.63;4997023;28;20061;-80
2022/06/05 05:47:11;;;;;;;7.78;5.93;;;;;;;24.38;37.00;99695.72;4995445;28;20059;-80
2022/06/05 05:49:40;;;;;;;9.93;6.75;;;;;;;24.05;37.66;99690.47;5001037;28;20062;-79
2022/06/05 05:52:12;;;;;;;17.58;6.40;;;;;;;23.96;37.23;99705.16;5001180;28;20496;-80
2022/06/05 05:54:40;;;;;;;14.63;6.70;;;;;;;23.59;37.87;99716.91;5000922;28;20058;-78
2022/06/05 05:57:09;;;;;;;9.50;6.03;;;;;;;22.99;38.91;99703.97;5000970;28;20065;-80
2022/06/05 05:59:37;;;;;;;16.40;6.57;;;;;;;22.40;40.55;99721.94;4995294;28;20050;-81
2022/06/05 06:02:10;;;;;;;14.50;6.53;;;;;;;22.01;41.71;99722.84;4995632;28;20054;-80
2022/06/05 06:04:41;;;;;;;15.18;6.78;;;;;;;21.68;42.50;99731.38;4994150;28;20046;-81
2022/06/05 06:07:13;;;;;;;11.77;6.68;;;;;;;21.42;42.81;99722.78;4994179;28;20069;-82
2022/06/05 06:09:40;;;;;;;19.25;7.40;;;;;;;21.23;43.06;99724.44;4995790;28;20066;-82
2022/06/05 06:12:09;;;;;;;15.75;7.90;;;;;;;20.60;44.72;99754.44;4995543;28;20133;-83
2022/06/05 06:14:40;;;;;;;16.38;7.20;;;;;;;20.12;45.84;99750.09;4995528;28;20145;-80
2022/06/05 06:17:07;;;;;;;13.23;6.95;;;;;;;19.45;47.49;99737.50;4995770;28;20050;-81
2022/06/05 06:19:36;;;;;;;10.63;6.60;;;;;;;19.21;48.25;99793.03;4995592;28;20054;-82
2022/06/05 06:22:04;;;;;;;11.77;6.80;;;;;;;18.72;49.62;99783.13;4993781;28;20050;-81
2022/06/05 06:24:34;;;;;;;14.55;6.95;;;;;;;18.41;51.17;99776.09;4994790;28;20109;-84
2022/06/05 06:27:03;;;;;;;15.27;7.35;;;;;;;17.94;54.00;99781.88;4994953;28;20166;-84
2022/06/05 06:29:31;;;;;;;13.45;6.85;;;;;;;17.51;55.19;99774.22;4977829;28;20054;-83
2022/06/05 06:31:59;;;;;;;11.02;6.40;;;;;;;17.26;56.66;99792.47;4995076;28;20140;-82
2022/06/05 06:34:28;;;;;;;12.73;8.63;;;;;;;16.82;58.40;99761.00;4993758;28;20062;-81
2022/06/05 06:36:57;;;;;;;18.30;8.88;;;;;;;16.73;58.73;99753.25;4994775;28;20054;-81
2022/06/05 06:39:28;;;;;;;17.55;7.15;;;;;;;16.98;59.51;99788.72;4993709;28;20145;-80
2022/06/05 06:41:57;;;;;;;18.38;9.38;;;;;;;16.74;59.71;99731.28;4994889;28;20105;-80
2022/06/05 06:44:26;;;;;;;14.88;8.32;;;;;;;17.08;59.23;99764.75;4994349;28;20066;-81
2022/06/05 06:46:54;;;;;;;;;;;;;;;16.94;58.02;99762.47;4994787;28;20057;-81
2022/06/05 06:49:22;;;;;;;19.17;9.07;;;;;;;16.88;59.45;99737.09;5007254;28;19987;-81
2022/06/05 06:51:50;;;;;;;15.73;8.32;;;;;;;16.96;59.79;99760.66;4994895;28;20472;-83
2022/06/05 06:54:19;;;;;;;19.00;9.05;;;;;;;16.76;60.81;99725.03;5003876;28;20117;-83
2022/06/05 06:56:50;;;;;;;18.92;9.40;;;;;;;16.68;60.59;99729.63;5003799;28;20408;-85
2022/06/05 06:59:18;;;;;;;;;;;;;;;16.39;60.38;99754.06;4972931;28;20073;-83
2022/06/05 07:01:47;;;;;;;12.13;7.65;;;;;;;16.03;63.57;99732.84;5003818;28;19929;-80
2022/06/05 07:04:17;;;;;;;15.95;7.68;;;;;;;15.92;64.87;99679.53;4989946;28;20046;-83
2022/06/05 07:06:45;;;;;;;9.43;5.32;;;;;;;16.09;62.63;99685.28;4977540;28;20109;-80
2022/06/05 07:09:14;;;;;;;12.52;7.20;;;;;;;16.13;62.40;99683.44;5002494;28;20048;-81
2022/06/05 07:11:43;;;;;;;11.05;6.82;;;;;;;16.31;62.32;99704.13;5004245;28;20054;-80
2022/06/05 07:14:10;;;;;;;9.48;5.20;;;;;;;16.61;61.02;99729.84;5003490;28;20081;-81
2022/06/05 07:16:39;;;;;;;9.98;5.80;;;;;;;16.70;61.43;99748.94;4987459;28;20157;-81
2022/06/05 07:19:08;;;;;;;11.10;6.25;;;;;;;16.84;61.65;99716.97;5003666;28;20057;-81
2022/06/05 07:21:36;;;;;;;10.10;5.55;;;;;;;17.06;61.39;99714.69;5002124;28;20050;-80
2022/06/05 07:24:04;;;;;;;10.10;5.40;;;;;;;17.33;61.31;99742.09;5002803;28;20086;-82
2022/06/05 07:26:33;;;;;;;;;;;;;;;17.30;59.90;99734.28;5001865;28;20052;-81
2022/06/05 07:29:02;;;;;;;11.27;6.53;;;;;;;17.86;58.67;99753.94;5004466;28;19925;-82
2022/06/05 07:31:31;;;;;;;9.80;6.80;;;;;;;18.56;58.22;99714.84;5002002;28;20046;-81
2022/06/05 07:34:00;;;;;;;12.20;6.57;;;;;;;19.34;56.94;99737.88;5003709;28;20531;-81
2022/06/05 07:36:29;;;;;;;11.00;6.15;;;;;;;19.53;55.74;99719.56;5002262;28;20133;-80
2022/06/05 07:38:57;;;;;;;8.57;5.88;;;;;;;19.80;55.20;99728.28;5005002;28;20226;-82
2022/06/05 07:41:30;;;;;;;6.03;5.15;;;;;;;19.75;54.43;99734.72;5002708;28;20137;-81
2022/06/05 07:44:00;;;;;;;10.60;5.68;;;;;;;19.57;53.59;99736.19;5002164;28;20055;-81
2022/06/05 07:46:32;;;;;;;10.63;6.38;;;;;;;19.47;53.91;99735.66;5003417;28;20133;-81
2022/06/05 07:48:59;;;;;;;6.40;5.07;;;;;;;19.33;55.35;99730.81;5002842;28;20081;-80
2022/06/05 07:54:26;;;;;;;8.60;5.27;;;;;;;19.36;55.57;99741.31;4993505;28;20156;-81
2022/06/05 07:56:58;;;;;;;6.07;4.93;;;;;;;19.52;55.51;99743.44;4993408;28;20050;-84
2022/06/05 07:59:30;;;;;;;6.25;4.82;;;;;;;19.64;54.54;99743.88;4992150;28;20054;-82
2022/06/05 08:01:59;;;;;;;9.38;7.00;;;;;;;19.40;54.54;99699.69;4994820;28;20138;-82
2022/06/05 08:04:28;;;;;;;5.70;5.10;;;;;;;19.82;53.40;99730.91;5002645;28;20519;-84
2022/06/05 08:07:00;;;;;;;10.40;7.57;;;;;;;19.83;52.44;99667.25;5001448;28;20065;-82
2022/06/05 08:09:28;;;;;;;7.60;5.63;;;;;;;20.50;51.53;99730.97;5004705;28;20074;-82
2022/06/05 08:11:57;;;;;;;9.10;4.93;;;;;;;20.55;51.50;99755.56;5004322;28;20053;-82
2022/06/05 08:14:25;;;;;;;7.65;5.90;;;;;;;20.36;51.78;99747.44;5002238;28;20050;-82
2022/06/05 08:16:56;;;;;;;8.73;5.57;;;;;;;20.28;52.12;99753.03;5001434;28;20128;-84
2022/06/05 08:19:24;;;;;;;7.20;5.38;;;;;;;20.43;51.64;99741.84;4995115;28;20519;-84
2022/06/05 08:21:52;;;;;;;6.25;5.35;;;;;;;20.56;50.51;99713.00;5001790;28;20050;-83
2022/06/05 08:24:20;;;;;;;9.70;5.00;;;;;;;20.85;50.60;99758.81;5007045;28;20046;-83
2022/06/05 08:26:48;;;;;;;6.28;4.70;;;;;;;20.89;50.43;99744.47;5000934;28;20054;-83
2022/06/05 08:29:15;;;;;;;7.00;4.85;;;;;;;20.83;50.26;99750.03;4997079;28;20158;-83
2022/06/05 08:31:43;;;;;;;7.80;5.30;;;;;;;20.77;50.51;99748.47;4997114;28;20062;-82
2022/06/05 08:34:12;;;;;;;7.90;5.18;;;;;;;20.59;50.16;99743.94;4998092;28;20050;-83
2022/06/05 08:36:46;;;;;;;7.82;5.13;;;;;;;20.57;50.56;99753.69;4997516;28;20058;-87
2022/06/05 08:42:06;;;;;;;7.75;5.40;;;;;;;20.43;50.15;99759.53;4996865;28;20058;-83
2022/06/05 08:44:58;;;;;;;6.28;5.00;;;;;;;20.24;49.95;99733.72;4995777;28;20062;-85
2022/06/05 08:47:29;;;;;;;7.63;5.60;;;;;;;20.27;49.73;99746.00;4991660;28;20512;-82
2022/06/05 08:50:03;;;;;;;9.18;5.68;;;;;;;19.93;50.32;99743.75;4996959;28;20065;-83
2022/06/05 08:53:09;;;;;;;7.35;5.75;;;;;;;19.91;51.22;99738.50;4996537;28;20050;-82
2022/06/05 08:55:41;;;;;;;8.45;5.80;;;;;;;20.52;49.59;99742.38;5005693;28;20054;-81
2022/06/05 08:58:23;;;;;;;10.18;5.70;;;;;;;20.81;48.75;99735.97;5011961;28;20054;-83
2022/06/05 09:01:13;;;;;;;10.20;5.57;;;;;;;20.73;48.67;99736.25;5014466;28;20113;-85
2022/06/05 09:04:37;;;;;;;10.57;4.80;;;;;;;20.54;47.52;99741.44;4996969;28;20050;-81
2022/06/05 09:07:09;;;;;;;5.97;4.00;;;;;;;20.53;47.12;99734.38;4917890;29;20097;-80
2022/06/05 09:09:51;;;;;;;7.05;3.88;;;;;;;20.55;46.74;99718.41;4917649;29;20140;-85
2022/06/05 09:12:33;;;;;;;5.88;3.70;;;;;;;20.65;46.09;99710.03;4980286;28;20054;-82
2022/06/05 09:15:08;;;;;;;6.60;3.90;;;;;;;20.22;46.66;99709.06;4996564;28;20058;-83
2022/06/05 09:17:43;;;;;;;10.10;5.43;;;;;;;19.82;47.59;99699.94;4995650;28;20058;-83
2022/06/05 09:20:17;;;;;;;8.25;5.10;;;;;;;19.72;48.18;99703.00;5006333;28;20500;-81
2022/06/05 09:22:57;;;;;;;5.68;4.45;;;;;;;19.92;47.31;99723.47;5013487;28;20484;-78
2022/06/05 09:25:39;;;;;;;5.38;4.00;;;;;;;20.35;47.17;99727.13;5029833;28;20054;-82
2022/06/05 09:28:26;;;;;;;5.40;4.10;;;;;;;20.91;46.51;99721.38;5027066;28;20069;-80
2022/06/05 09:31:26;;;;;;;5.88;3.97;;;;;;;21.22;45.31;99699.69;5026303;28;20046;-82
2022/06/05 09:33:57;;;;;;;8.02;4.00;;;;;;;21.46;44.55;99695.13;5014157;28;20474;-81
2022/06/05 09:36:30;;;;;;;5.97;4.25;;;;;;;21.39;45.31;99727.34;5015753;28;20117;-83
2022/06/05 09:39:16;;;;;;;6.22;4.63;;;;;;;21.17;45.55;99695.53;5014763;28;20400;-82
2022/06/05 09:42:12;;;;;;;7.72;4.70;;;;;;;21.07;45.54;99692.38;5013774;28;20050;-85
2022/06/05 09:44:57;;;;;;;6.90;4.85;;;;;;;21.33;45.74;99727.59;5013773;28;20120;-82
2022/06/05 09:47:37;;;;;;;7.07;4.88;;;;;;;21.49;45.10;99734.00;4987251;28;20758;-82
2022/06/05 09:50:23;;;;;;;6.57;4.70;;;;;;;21.39;44.94;99684.81;4995458;28;20149;-83
2022/06/05 09:52:51;;;;;;;7.55;4.22;;;;;;;21.88;43.67;99695.94;5012677;28;20054;-82
2022/06/05 09:55:20;;;;;;;6.15;4.90;;;;;;;22.00;43.14;99732.59;5014699;28;20057;-83
2022/06/05 09:58:24;;;;;;;5.07;3.53;;;;;;;21.37;43.61;99697.31;4995017;28;20054;-82
2022/06/05 10:00:55;;;;;;;6.43;3.40;;;;;;;21.06;43.97;99722.53;5003950;28;20050;-82
2022/06/05 10:03:29;;;;;;;8.90;4.05;;;;;;;20.86;44.57;99740.16;4995233;28;20052;-82
2022/06/05 10:06:17;;;;;;;11.10;7.28;;;;;;;20.80;44.59;99719.16;4995047;28;20053;-85
2022/06/05 10:08:49;;;;;;;10.98;6.47;;;;;;;20.88;44.22;99728.59;4996193;28;20066;-84
2022/06/05 10:11:50;;;;;;;10.32;3.80;;;;;;;21.14;42.74;99727.50;5005455;28;20455;-83
2022/06/05 10:14:38;;;;;;;3.40;3.10;;;;;;;21.33;42.01;99707.19;5003682;28;20054;-85
2022/06/05 10:17:24;;;;;;;4.80;2.88;;;;;;;21.12;42.44;99735.53;5003383;28;20042;-83
2022/06/05 10:20:13;;;;;;;3.60;2.50;;;;;;;21.00;42.71;99733.41;5001309;28;20105;-83
2022/06/05 10:22:54;;;;;;;7.30;2.50;;;;;;;20.90;43.37;99730.25;5008740;28;20050;-81
2022/06/05 10:26:06;;;;;;;4.40;2.70;;;;;;;20.41;45.15;99729.53;5001798;28;20413;-83
2022/06/05 10:28:39;;;;;;;6.22;3.05;;;;;;;20.39;45.90;99742.00;4904480;29;20059;-83
2022/06/05 10:31:22;;;;;;;4.47;3.17;;;;;;;20.31;45.88;99744.13;4923709;29;20509;-84
2022/06/05 10:34:24;;;;;;;3.03;2.70;;;;;;;20.48;46.05;99748.72;4982203;28;20053;-81
2022/06/05 10:37:04;;;;;;;4.93;3.42;;;;;;;20.50;45.47;99730.97;5002170;28;20436;-82
2022/06/05 10:39:36;;;;;;;16.98;8.20;;;;;;;20.39;46.17;99744.66;5001321;28;20077;-87
2022/06/05 10:42:29;;;;;;;34.90;21.88;;;;;;;20.17;46.45;99742.81;5001981;28;20145;-83
2022/06/05 10:45:21;;;;;;;4.22;2.65;;;;;;;19.63;46.78;99742.13;5002842;28;20065;-86
2022/06/05 10:48:08;;;;;;;5.55;4.22;;;;;;;19.48;47.93;99744.47;5004619;28;20069;-82
2022/06/05 10:50:47;;;;;;;7.03;4.60;;;;;;;19.49;48.07;99743.53;5004569;28;20046;-91
2022/06/05 10:53:33;;;;;;;16.48;9.65;;;;;;;19.62;46.84;99713.06;4992019;28;20150;-82
2022/06/05 10:56:29;;;;;;;11.88;7.80;;;;;;;20.00;46.10;99742.59;5000999;28;20141;-84
2022/06/05 10:59:30;;;;;;;6.75;4.60;;;;;;;19.31;46.30;99655.88;5015625;28;20045;-83
2022/06/05 11:02:18;;;;;;;9.02;5.00;;;;;;;20.00;46.21;99742.59;5016001;28;20052;-80
2022/06/05 11:04:50;;;;;;;9.63;4.50;;;;;;;20.12;46.01;99744.78;5012762;28;20057;-82
2022/06/05 11:07:41;;;;;;;4.47;2.75;;;;;;;20.24;45.79;99741.69;5006153;28;20104;-84
2022/06/05 11:13:43;;;;;;;5.78;4.13;;;;;;;20.80;44.78;99735.09;4999950;28;20480;-84
2022/06/05 11:16:19;;;;;;;8.48;4.40;;;;;;;20.99;44.56;99727.25;5002627;28;20060;-84
2022/06/05 11:18:59;;;;;;;5.53;3.33;;;;;;;21.28;43.59;99723.34;5005937;28;20057;-83
2022/06/05 11:21:32;;;;;;;10.00;5.88;;;;;;;21.48;43.11;99701.25;5005811;28;20050;-84
2022/06/05 11:24:06;;;;;;;4.43;2.47;;;;;;;21.64;42.43;99705.91;5003093;28;20061;-85
2022/06/05 11:26:52;;;;;;;5.82;2.47;;;;;;;21.54;42.16;99713.41;4997513;28;20045;-84
2022/06/05 11:29:34;;;;;;;3.50;2.60;;;;;;;21.39;42.45;99704.28;5003595;28;20042;-83
2022/06/05 11:32:28;;;;;;;2.17;1.98;;;;;;;20.97;42.20;99669.81;5002076;28;20053;-83
2022/06/05 11:35:21;;;;;;;2.67;2.05;;;;;;;21.03;42.75;99720.00;4998574;28;20588;-86
2022/06/05 11:37:59;;;;;;;2.47;2.28;;;;;;;20.77;42.84;99719.28;5002073;28;20492;-83
2022/06/05 11:40:47;;;;;;;3.78;2.60;;;;;;;20.56;43.54;99718.31;5005810;28;20084;-84
2022/06/05 11:43:32;;;;;;;7.45;3.03;;;;;;;20.36;44.11;99724.41;4992141;28;20528;-83
2022/06/05 11:46:35;;;;;;;4.65;2.83;;;;;;;20.31;44.69;99715.78;4993047;28;20141;-84
2022/06/05 11:49:19;;;;;;;3.25;2.50;;;;;;;20.31;44.42;99722.88;4994498;28;20061;-84
2022/06/05 11:52:20;;;;;;;3.00;2.25;;;;;;;20.05;44.73;99719.44;4997347;28;20057;-82
2022/06/05 11:55:03;;;;;;;6.03;2.85;;;;;;;19.93;45.88;99726.06;4995049;28;20500;-83
2022/06/05 11:57:35;;;;;;;2.70;2.30;;;;;;;19.67;45.78;99708.44;4997206;28;20054;-83
2022/06/05 12:00:18;;;;;;;3.50;2.70;;;;;;;19.52;46.10;99693.09;5001133;28;20047;-84
2022/06/05 12:03:10;;;;;;;5.28;3.00;;;;;;;19.73;46.43;99713.56;5005311;28;20141;-83
2022/06/05 12:05:41;;;;;;;4.53;2.42;;;;;;;19.76;46.28;99721.38;5000785;28;20080;-84
2022/06/05 12:08:18;;;;;;;;;;;;;;;19.59;46.36;99715.78;5002039;28;20054;-85
2022/06/05 12:11:12;;;;;;;4.35;2.40;;;;;;;20.00;45.91;99708.13;4988908;28;19925;-82
2022/06/05 12:14:05;;;;;;;4.18;2.40;;;;;;;20.12;45.24;99722.72;4985374;28;20516;-84
2022/06/05 12:16:41;;;;;;;3.70;2.38;;;;;;;20.01;44.99;99704.56;5008849;28;20050;-84
2022/06/05 12:19:27;;;;;;;4.38;2.92;;;;;;;20.27;44.82;99714.19;4998552;28;20054;-83
2022/06/05 12:21:58;;;;;;;6.00;4.05;;;;;;;20.45;44.21;99710.78;4993695;28;20065;-84